CheckWX is a tool to help pilots better visualize weather data.  It is not intended as a substitute for an official pre-flight weather briefing.

06:04:07 UTC

KRDD METAR
Redding Municipal Airport
Redding, California, USA
Current

1 hour ago

KRDD 200453Z 14006KT 10SM SCT120 07/M02 A3005 RMK AO2 SLP177 T00671017
Observed
Feb-20 @ 04:53 UTC
Wind
  • 140° at 6 KTS
Visibility
16,093 meters
Flight Rules
VFR
Cloud Levels
  • Scattered at 12,000' AGL
Temperature
C / 45°F
Dewpoint
-2°C / 28°F
Humidity
53%
Altimeter
30.05" Hg
Pressure
1017.7 hPa
Previous

2 hours ago

KRDD 200353Z 18004KT 10SM CLR 08/M02 A3006 RMK AO2 SLP182 T00831017
Observed
Feb-20 @ 03:53 UTC
Wind
  • 180° at 4 KTS
Visibility
16,093 meters
Flight Rules
VFR
Cloud Levels
  • Clear skies
Temperature
C / 46°F
Dewpoint
-2°C / 28°F
Humidity
50%
Altimeter
30.06" Hg
Pressure
1018.2 hPa
Previous

3 hours ago

KRDD 200253Z 15007KT 10SM CLR 09/M01 A3004 RMK AO2 SLP173 T00891006 58013
Observed
Feb-20 @ 02:53 UTC
Wind
  • 150° at 7 KTS
Visibility
16,093 meters
Flight Rules
VFR
Cloud Levels
  • Clear skies
Temperature
C / 48°F
Dewpoint
-1°C / 30°F
Humidity
50%
Altimeter
30.04" Hg
Pressure
1017.3 hPa